Portada
METAR-TAF:

METAR-TAF

Aeroports :

Agri-Science Center

Chillicothe, Missouri, Estats Units d'Amèrica

latitud: 39-49N, longitud: 093-35W, altitud: 234 m

Observació

L'informe es va fer fa 36 minuts, a les 18:52 UTC
Vent 8 kt del Sud/Sud-Oest
Temperatura 28°C
Humitat 74%
Pressió 1015 hPa

METAR: KCDJ 091852Z AUTO 20008KT 28/23 A2997 RMK AO1 SLP133 T02780233

Hora: 14:28 (19:28 UTC)


TAF: manca

Observacions i pronòstics meteorològics de més de 4000 aeroports (METAR i TAF).

Les estacions disponibles són els punts grocs i vermells al mapa.

Posi el ratolí al punt desitjat per veure el nom de l'estació.

Feu clic per veure les observacions i els pronòstics meteorològics.

Per canviar el mapa: feu clic els botons verds amb una creu de color negre per apropar; al botó verd amb un guió per allunyar la imatge; o en les fletxes verdes per a mapes adjacents.


METAR-TAF: